Time;durP1;ratioP1;P1;durP2;ratioP2;P2;SDS_P1;SDS_P2;PMS_P1;PMS_P2;Temp;Humidity;BMP_temperature;BMP_pressure;BME280_temperature;BME280_humidity;BME280_pressure;Samples;Min_cycle;Max_cycle;Signal;HPM_P1;HPM_P2
2022/10/29 00:00:11;;;;;;;;;;;;;;;21.92;64.41;101531.03;5011506;28;3001;-60
2022/10/29 00:02:37;;;;;;;;;;;;;;;21.92;64.49;101534.69;5014567;28;2686;-60
2022/10/29 00:05:04;;;;;;;;;;;;;;;21.92;64.69;101533.91;5013200;28;2742;-60
2022/10/29 00:07:30;;;;;;;;;;;;;;;21.91;64.88;101535.31;5014877;28;2903;-60
2022/10/29 00:09:56;;;;;;;;;;;;;;;21.91;64.57;101529.56;5016254;28;2772;-60
2022/10/29 00:12:23;;;;;;;;;;;;;;;21.93;64.55;101535.44;5011061;28;2737;-60
2022/10/29 00:14:49;;;;;;;;;;;;;;;21.92;64.62;101528.16;5011955;28;2588;-60
2022/10/29 00:17:15;;;;;;;;;;;;;;;21.92;64.54;101531.03;5012513;28;2745;-60
2022/10/29 00:19:42;;;;;;;;;;;;;;;21.90;64.61;101531.69;5011385;28;2779;-60
2022/10/29 00:22:08;;;;;;;;;;;;;;;21.91;64.51;101541.81;5011517;28;2844;-60
2022/10/29 00:24:34;;;;;;;;;;;;;;;21.92;64.86;101548.34;5014529;28;2982;-60
2022/10/29 00:27:01;;;;;;;;;;;;;;;21.89;64.74;101549.63;5014604;28;2782;-60
2022/10/29 00:29:27;;;;;;;;;;;;;;;21.91;64.38;101562.00;5014180;28;2594;-60
2022/10/29 00:31:53;;;;;;;;;;;;;;;21.91;64.61;101561.28;5010040;28;2710;-60
2022/10/29 00:34:20;;;;;;;;;;;;;;;21.91;64.37;101561.28;5014533;28;2979;-60
2022/10/29 00:36:46;;;;;;;;;;;;;;;21.89;64.64;101581.34;5008600;28;2213;-60
2022/10/29 00:39:13;;;;;;;;;;;;;;;21.90;64.43;101577.09;5011255;28;2867;-60
2022/10/29 00:41:39;;;;;;;;;;;;;;;21.89;64.62;101581.34;5014555;28;2728;-60
2022/10/29 00:44:21;;;;;;;;;;;;;;;21.88;64.65;101574.09;5015256;28;2897;-59
2022/10/29 00:47:06;;;;;;;;;;;;;;;21.90;64.79;101574.22;5017624;28;1862;-59
2022/10/29 00:49:32;;;;;;;;;;;;;;;21.90;64.30;101574.22;5012513;28;2828;-59
2022/10/29 00:51:59;;;;;;;;;;;;;;;21.90;64.22;101565.56;5027610;28;2787;-59
2022/10/29 00:54:27;;;;;;;;;;;;;;;21.89;64.49;101564.06;5013692;28;2620;-59
2022/10/29 00:56:55;;;;;;;;;;;;;;;21.88;64.69;101556.81;5028392;28;2966;-59
2022/10/29 00:59:22;;;;;;;;;;;;;;;21.89;64.44;101558.28;5014185;28;2651;-59
2022/10/29 01:01:48;;;;;;;;;;;;;;;21.86;64.65;101559.56;5016437;28;2712;-59
2022/10/29 01:04:15;;;;;;;;;;;;;;;21.86;64.75;101562.47;5010726;28;2783;-59
2022/10/29 01:06:42;;;;;;;;;;;;;;;21.87;64.81;101572.59;5014201;28;2688;-59
2022/10/29 01:09:09;;;;;;;;;;;;;;;21.87;64.42;101576.22;5013668;28;2750;-60
2022/10/29 01:11:35;;;;;;;;;;;;;;;21.87;64.76;101566.81;5013956;28;2771;-60
2022/10/29 01:14:14;;;;;;;;;;;;;;;21.87;64.61;101566.81;5012083;28;2656;-59
2022/10/29 01:16:45;;;;;;;;;;;;;;;21.88;64.54;101574.09;5012094;28;2832;-59
2022/10/29 01:19:31;;;;;;;;;;;;;;;21.87;64.30;101566.81;5024020;28;2870;-59
2022/10/29 01:22:02;;;;;;;;;;;;;;;21.85;64.28;101563.84;5004643;28;2792;-59
2022/10/29 01:24:45;;;;;;;;;;;;;;;21.86;64.54;101559.56;5008363;28;3013;-59
2022/10/29 01:27:20;;;;;;;;;;;;;;;21.85;64.52;101558.84;5023550;28;3049;-59
2022/10/29 01:30:01;;;;;;;;;;;;;;;21.88;64.58;101556.81;5009289;28;2810;-59
2022/10/29 01:32:30;;;;;;;;;;;;;;;21.87;64.33;101569.72;5023536;28;2847;-59
2022/10/29 01:35:04;;;;;;;;;;;;;;;21.85;64.29;101558.06;5016493;28;2700;-59
2022/10/29 01:37:32;;;;;;;;;;;;;;;21.85;64.19;101563.84;5025233;28;2604;-59
2022/10/29 01:40:06;;;;;;;;;;;;;;;21.85;64.35;101569.59;5021971;28;2845;-59
2022/10/29 01:42:39;;;;;;;;;;;;;;;21.86;64.40;101568.22;5012899;28;2677;-59
2022/10/29 01:45:10;;;;;;;;;;;;;;;21.86;64.33;101574.72;5015716;28;2830;-59
2022/10/29 01:47:41;;;;;;;;;;;;;;;21.84;64.19;101574.63;5014754;28;2924;-59
2022/10/29 01:50:07;;;;;;;;;;;;;;;21.84;64.63;101568.13;5017627;28;1778;-59
2022/10/29 01:52:34;;;;;;;;;;;;;;;21.84;64.43;101580.38;5015056;28;2943;-59
2022/10/29 01:55:00;;;;;;;;;;;;;;;21.84;64.30;101585.41;5016481;28;2799;-59
2022/10/29 01:57:30;;;;;;;;;;;;;;;21.84;64.30;101579.66;5027851;28;3004;-59
2022/10/29 01:59:57;;;;;;;;;;;;;;;21.84;64.46;101579.66;5016562;28;2318;-59
2022/10/29 02:02:29;;;;;;;;;;;;;;;21.83;64.26;101578.91;5014659;28;2419;-59
2022/10/29 02:05:25;;;;;;;;;;;;;;;21.84;64.35;101585.41;5014161;28;2644;-59
2022/10/29 02:08:04;;;;;;;;;;;;;;;21.83;64.62;101581.03;4998136;28;3030;-59
2022/10/29 02:10:42;;;;;;;;;;;;;;;21.83;64.44;101589.69;5012486;28;2833;-60
2022/10/29 02:13:08;;;;;;;;;;;;;;;21.83;64.17;101589.69;5012883;28;2353;-60
2022/10/29 02:15:36;;;;;;;;;;;;;;;21.83;64.30;101595.44;5015036;28;2865;-59
2022/10/29 02:18:03;;;;;;;;;;;;;;;21.83;64.65;101604.88;5010812;28;2751;-59
2022/10/29 02:20:30;;;;;;;;;;;;;;;21.83;64.30;101604.09;5026876;28;2832;-59
2022/10/29 02:22:56;;;;;;;;;;;;;;;21.82;64.41;101614.88;5015333;28;2776;-59
2022/10/29 02:25:22;;;;;;;;;;;;;;;21.82;64.18;101617.03;5010600;28;2675;-59
2022/10/29 02:27:49;;;;;;;;;;;;;;;21.80;64.37;101619.81;5012750;28;2879;-59
2022/10/29 02:30:15;;;;;;;;;;;;;;;21.81;64.56;101621.31;5011974;28;2866;-59
2022/10/29 02:32:41;;;;;;;;;;;;;;;21.81;64.39;101618.44;5016016;28;2502;-59
2022/10/29 02:35:08;;;;;;;;;;;;;;;21.81;64.17;101618.44;5013730;28;2680;-59
2022/10/29 02:37:34;;;;;;;;;;;;;;;21.80;64.45;101611.88;5015528;28;2770;-59
2022/10/29 02:40:01;;;;;;;;;;;;;;;21.80;64.46;101614.03;5014888;28;2638;-60
2022/10/29 02:42:27;;;;;;;;;;;;;;;21.82;64.35;101622.78;5015276;28;1699;-59
2022/10/29 02:44:53;;;;;;;;;;;;;;;21.82;64.48;101622.78;5014666;28;2728;-59
2022/10/29 02:47:20;;;;;;;;;;;;;;;21.82;64.12;101629.31;5017944;28;2903;-59
2022/10/29 02:49:46;;;;;;;;;;;;;;;21.82;64.28;101631.44;5012966;28;2663;-60
2022/10/29 02:52:12;;;;;;;;;;;;;;;21.82;64.18;101631.44;5014906;28;2734;-59
2022/10/29 02:54:39;;;;;;;;;;;;;;;21.81;64.41;101627.06;5014207;28;1887;-59
2022/10/29 02:57:05;;;;;;;;;;;;;;;21.81;64.29;101621.31;5013355;28;2636;-60
2022/10/29 02:59:31;;;;;;;;;;;;;;;21.81;64.17;101621.31;5008143;28;2957;-59
2022/10/29 03:01:58;;;;;;;;;;;;;;;21.80;64.17;101622.69;5010459;28;2960;-60
2022/10/29 03:04:24;;;;;;;;;;;;;;;21.80;64.40;101614.78;5011077;28;2482;-60
2022/10/29 03:06:50;;;;;;;;;;;;;;;21.80;64.23;101614.03;5015189;28;2564;-59
2022/10/29 03:09:17;;;;;;;;;;;;;;;21.80;64.41;101614.03;5011820;28;2552;-59
2022/10/29 03:11:43;;;;;;;;;;;;;;;21.81;64.31;101621.31;5012525;28;2640;-60
2022/10/29 03:14:09;;;;;;;;;;;;;;;21.80;64.02;101619.81;5015830;28;3076;-60
2022/10/29 03:16:36;;;;;;;;;;;;;;;21.80;64.29;101625.56;5015076;28;2870;-60
2022/10/29 03:19:02;;;;;;;;;;;;;;;21.81;64.27;101612.66;5015486;28;2601;-59
2022/10/29 03:21:28;;;;;;;;;;;;;;;21.80;64.32;101608.25;5017624;28;2803;-59
2022/10/29 03:23:55;;;;;;;;;;;;;;;21.79;64.15;101606.78;5014419;28;2691;-59
2022/10/29 03:26:21;;;;;;;;;;;;;;;21.79;64.18;101613.28;5013564;28;3050;-59
2022/10/29 03:28:47;;;;;;;;;;;;;;;21.78;64.14;101619.69;5015915;28;2908;-60
2022/10/29 03:31:14;;;;;;;;;;;;;;;21.78;64.04;101617.53;5013524;28;2672;-59
2022/10/29 03:33:40;;;;;;;;;;;;;;;21.79;64.13;101626.97;5017758;28;2893;-59
2022/10/29 03:36:06;;;;;;;;;;;;;;;21.78;64.12;101622.56;5015690;28;2749;-59
2022/10/29 03:38:33;;;;;;;;;;;;;;;21.78;64.10;101622.56;5018805;28;3408;-59
2022/10/29 03:40:59;;;;;;;;;;;;;;;21.77;64.09;101627.59;5016503;28;2887;-59
2022/10/29 03:43:26;;;;;;;;;;;;;;;21.77;64.22;101627.59;5014127;28;3033;-59
2022/10/29 03:45:52;;;;;;;;;;;;;;;21.77;64.05;101633.38;5014325;28;3129;-59
2022/10/29 03:48:19;;;;;;;;;;;;;;;21.77;64.28;101626.84;5016713;28;1652;-59
2022/10/29 03:50:52;;;;;;;;;;;;;;;21.77;63.98;101627.59;5018336;28;2892;-59
2022/10/29 03:53:18;;;;;;;;;;;;;;;21.77;64.02;101632.63;5015721;28;2840;-59
2022/10/29 03:55:45;;;;;;;;;;;;;;;21.76;64.23;101637.63;5018857;28;1777;-59
2022/10/29 03:58:11;;;;;;;;;;;;;;;21.75;64.06;101636.13;5016075;28;2650;-59
2022/10/29 04:00:37;;;;;;;;;;;;;;;21.75;64.09;101642.63;5012958;28;2972;-59
2022/10/29 04:03:04;;;;;;;;;;;;;;;21.75;63.91;101647.66;5015018;28;3073;-60
2022/10/29 04:05:30;;;;;;;;;;;;;;;21.73;64.05;101636.75;5017871;28;2700;-60
2022/10/29 04:07:56;;;;;;;;;;;;;;;21.74;64.16;101641.16;5011245;28;2865;-59
2022/10/29 04:10:24;;;;;;;;;;;;;;;21.74;64.26;101644.03;5014222;28;2945;-60
2022/10/29 04:12:51;;;;;;;;;;;;;;;21.75;64.00;101651.28;5017097;28;2813;-60
2022/10/29 04:15:17;;;;;;;;;;;;;;;21.74;63.82;101640.41;5020169;28;2217;-59
2022/10/29 04:17:43;;;;;;;;;;;;;;;21.74;63.98;101644.03;5011172;28;3078;-59
2022/10/29 04:20:10;;;;;;;;;;;;;;;21.74;63.86;101646.94;5017487;28;3163;-59
2022/10/29 04:22:56;;;;;;;;;;;;;;;21.72;63.89;101638.16;5011768;28;2864;-59
2022/10/29 04:25:42;;;;;;;;;;;;;;;21.72;63.89;101643.94;5013480;28;2451;-60
2022/10/29 04:28:29;;;;;;;;;;;;;;;21.72;64.18;101648.94;5040558;28;2803;-59
2022/10/29 04:31:09;;;;;;;;;;;;;;;21.72;63.88;101637.44;5017688;28;2687;-59
2022/10/29 04:33:36;;;;;;;;;;;;;;;21.72;64.03;101635.28;5011824;28;2871;-59
2022/10/29 04:36:02;;;;;;;;;;;;;;;21.70;63.93;101617.88;5013983;28;2658;-60
2022/10/29 04:38:29;;;;;;;;;;;;;;;21.69;63.94;101616.41;5014625;28;2667;-59
2022/10/29 04:40:58;;;;;;;;;;;;;;;21.70;63.90;101623.63;5014838;28;2078;-60
2022/10/29 04:43:25;;;;;;;;;;;;;;;21.70;63.98;101617.13;5013164;28;2829;-60
2022/10/29 04:45:51;;;;;;;;;;;;;;;21.70;63.94;101612.09;5016123;28;2947;-60
2022/10/29 04:48:18;;;;;;;;;;;;;;;21.70;63.73;101623.63;5015328;28;2872;-59
2022/10/29 04:50:44;;;;;;;;;;;;;;;21.71;64.01;101641.69;5012186;28;2946;-60
2022/10/29 04:53:10;;;;;;;;;;;;;;;21.71;64.08;101648.19;5017428;28;2849;-60
2022/10/29 04:55:37;;;;;;;;;;;;;;;21.73;64.01;101651.19;5016457;28;2751;-60
2022/10/29 04:58:04;;;;;;;;;;;;;;;21.74;64.33;101641.16;5010567;28;2864;-60
2022/10/29 05:00:30;;;;;;;;;;;;;;;21.77;64.13;101644.16;5013729;28;2952;-60
2022/10/29 05:02:56;;;;;;;;;;;;;;;21.75;64.31;101648.41;5015453;28;1889;-60
2022/10/29 05:05:23;;;;;;;;;;;;;;;21.74;64.69;101646.94;5012624;28;2869;-59
2022/10/29 05:07:54;;;;;;;;;;;;;;;21.75;64.32;101648.41;5013558;28;2897;-60
2022/10/29 05:10:21;;;;;;;;;;;;;;;21.76;64.37;101660.69;5015701;28;1787;-59
2022/10/29 05:12:47;;;;;;;;;;;;;;;21.77;64.25;101652.81;5015854;28;2757;-60
2022/10/29 05:15:13;;;;;;;;;;;;;;;21.77;64.49;101667.97;5026269;28;3189;-60
2022/10/29 05:17:40;;;;;;;;;;;;;;;21.76;64.18;101663.56;5004081;28;3511;-60
2022/10/29 05:20:06;;;;;;;;;;;;;;;21.75;64.35;101668.59;5014835;28;2710;-60
2022/10/29 05:22:32;;;;;;;;;;;;;;;21.75;64.42;101662.81;5014267;28;2843;-60
2022/10/29 05:24:59;;;;;;;;;;;;;;;21.75;64.21;101659.94;5015251;28;2818;-60
2022/10/29 05:27:25;;;;;;;;;;;;;;;21.75;64.23;101659.94;5016249;28;2741;-60
2022/10/29 05:29:52;;;;;;;;;;;;;;;21.75;64.26;101664.97;5008754;28;2781;-60
2022/10/29 05:32:18;;;;;;;;;;;;;;;21.75;64.17;101665.69;5012180;28;2840;-60
2022/10/29 05:34:44;;;;;;;;;;;;;;;21.73;64.20;101662.72;5009137;28;2889;-60
2022/10/29 05:37:11;;;;;;;;;;;;;;;21.74;63.86;101663.47;5011275;28;2765;-60
2022/10/29 05:39:37;;;;;;;;;;;;;;;21.75;64.25;101671.47;5016256;28;3344;-60
2022/10/29 05:42:04;;;;;;;;;;;;;;;21.73;63.91;101665.59;5013621;28;2509;-60
2022/10/29 05:44:30;;;;;;;;;;;;;;;21.73;64.10;101656.19;5015395;28;2503;-60
2022/10/29 05:46:57;;;;;;;;;;;;;;;21.73;64.23;101656.19;5013025;28;3203;-59
2022/10/29 05:49:23;;;;;;;;;;;;;;;21.72;63.93;101661.22;5012774;28;2936;-60
2022/10/29 05:51:49;;;;;;;;;;;;;;;21.72;63.93;101655.47;5016003;28;2576;-59
2022/10/29 05:54:16;;;;;;;;;;;;;;;21.72;64.12;101657.59;5015804;28;2775;-60
2022/10/29 05:56:42;;;;;;;;;;;;;;;21.71;63.80;101653.94;5014799;28;2876;-59
2022/10/29 05:59:08;;;;;;;;;;;;;;;21.71;64.09;101653.94;5010136;28;2893;-60
2022/10/29 06:01:35;;;;;;;;;;;;;;;21.72;63.87;101654.72;5008071;28;3195;-60
2022/10/29 06:04:01;;;;;;;;;;;;;;;21.72;63.84;101655.47;5014009;28;2922;-60
2022/10/29 06:06:27;;;;;;;;;;;;;;;21.72;63.85;101655.47;5010930;28;3116;-60
2022/10/29 06:08:54;;;;;;;;;;;;;;;21.71;63.94;101656.09;5012818;28;2700;-60
2022/10/29 06:11:20;;;;;;;;;;;;;;;21.71;63.87;101665.47;5014591;28;2755;-61
2022/10/29 06:13:46;;;;;;;;;;;;;;;21.72;63.96;101661.22;5010715;28;2897;-61
2022/10/29 06:16:13;;;;;;;;;;;;;;;21.72;64.00;101664.13;5017243;28;2972;-61
2022/10/29 06:18:39;;;;;;;;;;;;;;;21.70;63.95;101664.00;5012489;28;3069;-61
2022/10/29 06:21:05;;;;;;;;;;;;;;;21.71;63.97;101668.38;5012386;28;3264;-61
2022/10/29 06:23:32;;;;;;;;;;;;;;;21.71;64.13;101671.25;5012117;28;2830;-61
2022/10/29 06:25:59;;;;;;;;;;;;;;;21.70;64.20;101672.66;5017593;28;1597;-61
2022/10/29 06:28:25;;;;;;;;;;;;;;;21.69;64.03;101679.81;5012761;28;2773;-62
2022/10/29 06:30:58;;;;;;;;;;;;;;;21.69;64.04;101673.28;5014432;28;2528;-61
2022/10/29 06:33:24;;;;;;;;;;;;;;;21.69;63.88;101674.03;5011281;28;2810;-60
2022/10/29 06:35:51;;;;;;;;;;;;;;;21.69;63.74;101674.03;5011853;28;2660;-61
2022/10/29 06:38:17;;;;;;;;;;;;;;;21.68;63.87;101672.53;5017102;28;2423;-61
2022/10/29 06:40:49;;;;;;;;;;;;;;;21.72;64.16;101672.75;5005412;28;3824;-58
2022/10/29 06:43:15;;;;;;;;;;;;;;;21.70;63.74;101681.28;5013575;28;2818;-60
2022/10/29 06:45:42;;;;;;;;;;;;;;;21.70;63.47;101675.53;5008763;28;2859;-60
2022/10/29 06:48:08;;;;;;;;;;;;;;;21.71;63.57;101677.00;5012695;28;2881;-61
2022/10/29 06:50:34;;;;;;;;;;;;;;;21.72;63.54;101675.63;5016546;28;2728;-61
2022/10/29 06:53:04;;;;;;;;;;;;;;;21.72;63.23;101675.63;5033559;28;2783;-61
2022/10/29 06:55:34;;;;;;;;;;;;;;;21.73;63.39;101674.25;5018224;28;2676;-62
2022/10/29 06:58:01;;;;;;;;;;;;;;;21.74;63.10;101684.41;5021335;28;2733;-61
2022/10/29 07:00:28;;;;;;;;;;;;;;;21.75;63.04;101676.50;5013571;28;2969;-62
2022/10/29 07:02:54;;;;;;;;;;;;;;;21.72;63.69;101681.41;5014597;28;3371;-60
2022/10/29 07:05:21;;;;;;;;;;;;;;;21.78;63.46;101674.47;5012500;28;2711;-62
2022/10/29 07:07:47;;;;;;;;;;;;;;;21.78;63.56;101678.09;5017542;28;2715;-59
2022/10/29 07:10:14;;;;;;;;;;;;;;;21.86;63.30;101677.78;5018941;28;2512;-60
2022/10/29 07:12:43;;;;;;;;;;;;;;;21.87;63.81;101682.16;5022477;28;2575;-64
2022/10/29 07:15:09;;;;;;;;;;;;;;;21.90;63.30;101686.66;5019173;28;2846;-62
2022/10/29 07:17:36;;;;;;;;;;;;;;;21.64;62.11;101686.72;5020086;28;2958;-63
2022/10/29 07:20:02;;;;;;;;;;;;;;;21.61;62.39;101688.00;5023104;28;1914;-62
2022/10/29 07:22:29;;;;;;;;;;;;;;;21.71;61.91;101688.53;5019762;28;1617;-62
2022/10/29 07:25:00;;;;;;;;;;;;;;;21.78;62.25;101703.28;5019799;28;2601;-64
2022/10/29 07:27:26;;;;;;;;;;;;;;;21.81;62.03;101702.03;5018121;28;2532;-64
2022/10/29 07:29:53;;;;;;;;;;;;;;;21.79;62.86;101722.09;5022878;28;1591;-65
2022/10/29 07:32:19;;;;;;;;;;;;;;;21.77;63.56;101719.09;5020838;28;1665;-64
2022/10/29 07:34:46;;;;;;;;;;;;;;;21.78;63.19;101715.56;5022488;28;2536;-64
2022/10/29 07:37:12;;;;;;;;;;;;;;;21.78;62.65;101714.81;5020081;28;2702;-64
2022/10/29 07:39:38;;;;;;;;;;;;;;;21.80;63.07;101714.94;5021665;28;2400;-64
2022/10/29 07:42:05;;;;;;;;;;;;;;;21.79;62.59;101716.34;5017004;28;2890;-61
2022/10/29 07:44:31;;;;;;;;;;;;;;;21.62;62.13;101717.56;5015268;28;2979;-63
2022/10/29 07:46:58;;;;;;;;;;;;;;;21.52;61.92;101723.53;5015095;28;2995;-64
2022/10/29 07:49:24;;;;;;;;;;;;;;;21.63;62.31;101722.72;5020614;28;2768;-63
2022/10/29 07:51:50;;;;;;;;;;;;;;;21.68;62.29;101735.94;5013295;28;2850;-63
2022/10/29 07:54:17;;;;;;;;;;;;;;;21.66;61.83;101727.19;5020810;28;2812;-65
2022/10/29 07:56:43;;;;;;;;;;;;;;;21.66;62.16;101721.44;5019910;28;2925;-64
2022/10/29 07:59:14;;;;;;;;;;;;;;;21.64;62.29;101724.19;5021706;28;2696;-64
2022/10/29 08:01:40;;;;;;;;;;;;;;;21.66;62.05;101721.44;5015848;28;2491;-65
2022/10/29 08:04:07;;;;;;;;;;;;;;;21.65;62.00;101725.72;5018881;28;2663;-64
2022/10/29 08:06:33;;;;;;;;;;;;;;;21.64;61.74;101712.66;5019204;28;2640;-64
2022/10/29 08:08:59;;;;;;;;;;;;;;;21.65;61.58;101716.31;5018907;28;1885;-64
2022/10/29 08:11:26;;;;;;;;;;;;;;;21.63;61.51;101716.19;5017880;28;2875;-66
2022/10/29 08:13:52;;;;;;;;;;;;;;;21.69;61.68;101725.16;5015028;28;3216;-67
2022/10/29 08:16:18;;;;;;;;;;;;;;;21.20;63.29;101728.94;5015356;28;3460;-67
2022/10/29 08:18:45;;;;;;;;;;;;;;;20.92;63.80;101730.94;5013183;28;2832;-67
2022/10/29 08:21:11;;;;;;;;;;;;;;;20.47;64.60;101729.03;5015664;28;2472;-67
2022/10/29 08:23:37;;;;;;;;;;;;;;;20.63;64.31;101732.16;5015185;28;2286;-69
2022/10/29 08:26:04;;;;;;;;;;;;;;;20.95;63.44;101728.94;5016448;28;2785;-69
2022/10/29 08:28:30;;;;;;;;;;;;;;;20.91;63.77;101730.22;5019886;28;1638;-63
2022/10/29 08:31:01;;;;;;;;;;;;;;;20.70;64.28;101730.38;5011466;28;4561;-71
2022/10/29 08:33:27;;;;;;;;;;;;;;;20.60;67.15;101732.69;5014958;28;3178;-69
2022/10/29 08:35:54;;;;;;;;;;;;;;;19.56;68.36;101724.91;5014631;28;2735;-74
2022/10/29 08:38:22;;;;;;;;;;;;;;;19.28;68.59;101734.56;5021618;28;3201;-76
2022/10/29 08:41:07;;;;;;;;;;;;;;;20.09;66.92;101733.97;5017431;28;2984;-75
2022/10/29 08:43:52;;;;;;;;;;;;;;;21.17;64.43;101729.47;5028529;28;2667;-72
2022/10/29 08:46:32;;;;;;;;;;;;;;;21.54;63.34;101726.53;5015522;28;4417;-70
2022/10/29 08:48:59;;;;;;;;;;;;;;;21.67;62.86;101727.94;5017967;28;2727;-75
2022/10/29 08:51:35;;;;;;;;;;;;;;;21.81;62.46;101725.09;5020486;28;2771;-79
2022/10/29 08:54:02;;;;;;;;;;;;;;;21.61;62.09;101728.34;5023682;28;3041;-69
2022/10/29 08:56:49;;;;;;;;;;;;;;;21.57;62.15;101733.16;5018463;28;2859;-67
2022/10/29 08:59:16;;;;;;;;;;;;;;;21.62;62.25;101732.72;5015438;28;4260;-74
2022/10/29 09:01:42;;;;;;;;;;;;;;;21.79;61.66;101733.63;5024286;28;3072;-73
2022/10/29 09:04:18;;;;;;;;;;;;;;;21.90;61.63;101727.78;5047063;28;3021;-67
2022/10/29 09:06:45;;;;;;;;;;;;;;;22.06;61.08;101722.13;5016879;28;2973;-73
2022/10/29 09:09:30;;;;;;;;;;;;;;;22.12;60.77;101733.22;5007774;28;3493;-66
2022/10/29 09:12:05;;;;;;;;;;;;;;;21.82;61.18;101729.47;5003688;28;5311;-66
2022/10/29 09:14:31;;;;;;;;;;;;;;;21.77;60.92;101733.53;5016089;28;3147;-63
2022/10/29 09:17:00;;;;;;;;;;;;;;;21.91;61.29;101745.81;5016358;28;2758;-68
2022/10/29 09:19:31;;;;;;;;;;;;;;;21.97;60.60;101746.16;5014358;28;3095;-64
2022/10/29 09:22:16;;;;;;;;;;;;;;;22.06;60.68;101750.97;5008319;28;3176;-73
2022/10/29 09:24:45;;;;;;;;;;;;;;;21.91;60.75;101748.72;5006451;28;4910;-68
2022/10/29 09:27:11;;;;;;;;;;;;;;;21.83;60.99;101742.47;5016067;28;3162;-69
2022/10/29 09:29:45;;;;;;;;;;;;;;;21.79;61.25;101748.06;5006238;28;3281;-68
2022/10/29 09:32:14;;;;;;;;;;;;;;;21.75;61.58;101740.66;5025063;28;5622;-69
2022/10/29 09:34:42;;;;;;;;;;;;;;;21.72;61.64;101736.19;5010689;28;3062;-69
2022/10/29 09:37:12;;;;;;;;;;;;;;;21.68;61.84;101747.47;5010533;28;3002;-69
2022/10/29 09:39:39;;;;;;;;;;;;;;;21.71;61.64;101740.44;5010757;28;3120;-69
2022/10/29 09:42:09;;;;;;;;;;;;;;;21.65;61.55;101731.47;5002326;28;5573;-68
2022/10/29 09:44:55;;;;;;;;;;;;;;;21.64;61.34;101735.72;5022442;28;3165;-69
2022/10/29 09:47:40;;;;;;;;;;;;;;;21.71;61.22;101728.16;5010166;28;3148;-70
2022/10/29 09:50:19;;;;;;;;;;;;;;;21.77;61.03;101730.63;5010658;28;2985;-69
2022/10/29 09:52:46;;;;;;;;;;;;;;;21.78;61.53;101735.00;5007572;28;3060;-71
2022/10/29 09:55:17;;;;;;;;;;;;;;;21.77;61.42;101730.63;5005249;28;3100;-69
2022/10/29 09:57:44;;;;;;;;;;;;;;;21.82;61.49;101720.81;5013470;28;3257;-67
2022/10/29 10:00:14;;;;;;;;;;;;;;;21.79;61.68;101727.88;5009971;28;5112;-70
2022/10/29 10:02:44;;;;;;;;;;;;;;;21.79;61.52;101722.09;5013524;28;2852;-72
2022/10/29 10:05:14;;;;;;;;;;;;;;;21.80;61.71;101730.09;5012050;28;2891;-64
2022/10/29 10:07:41;;;;;;;;;;;;;;;21.78;61.62;101723.47;5006179;28;2706;-64
2022/10/29 10:10:20;;;;;;;;;;;;;;;21.68;62.02;101724.41;5002905;28;2820;-57
2022/10/29 10:12:47;;;;;;;;;;;;;;;21.61;62.02;101724.72;5006733;28;2758;-59
2022/10/29 10:15:32;;;;;;;;;;;;;;;21.62;62.01;101718.31;5003126;28;2785;-71
2022/10/29 10:17:59;;;;;;;;;;;;;;;21.66;61.92;101712.78;5004377;28;2913;-59
2022/10/29 10:20:32;;;;;;;;;;;;;;;21.64;61.93;101709.78;5000563;28;3157;-59
2022/10/29 10:22:58;;;;;;;;;;;;;;;21.65;61.94;101702.66;5005946;28;3690;-63
2022/10/29 10:25:31;;;;;;;;;;;;;;;21.67;61.92;101693.34;5008553;28;2834;-72
2022/10/29 10:28:01;;;;;;;;;;;;;;;21.67;61.57;101688.34;5009521;28;2671;-71
2022/10/29 10:30:27;;;;;;;;;;;;;;;21.64;61.92;101688.88;5016110;28;3056;-70
2022/10/29 10:32:57;;;;;;;;;;;;;;;21.72;61.34;101695.81;5008411;28;2657;-70
2022/10/29 10:35:24;;;;;;;;;;;;;;;21.77;61.37;101687.41;5030535;28;2719;-70
2022/10/29 10:37:50;;;;;;;;;;;;;;;21.78;61.62;101691.75;5013849;28;2892;-70
2022/10/29 10:40:21;;;;;;;;;;;;;;;21.77;61.80;101691.03;5020783;28;1914;-71
2022/10/29 10:42:47;;;;;;;;;;;;;;;21.78;62.28;101691.75;5019590;28;1550;-69
2022/10/29 10:45:14;;;;;;;;;;;;;;;21.78;62.09;101691.75;5027332;28;1814;-70
2022/10/29 10:47:47;;;;;;;;;;;;;;;21.78;62.01;101698.28;5014507;28;1672;-70
2022/10/29 10:50:27;;;;;;;;;;;;;;;21.78;62.17;101700.41;5009991;28;2844;-70
2022/10/29 10:52:53;;;;;;;;;;;;;;;21.79;62.60;101704.81;5012917;28;1542;-70
2022/10/29 10:55:24;;;;;;;;;;;;;;;21.81;62.37;101702.03;5013996;28;1824;-70
2022/10/29 10:57:58;;;;;;;;;;;;;;;21.81;62.21;101696.28;5014998;28;1836;-70
2022/10/29 11:00:25;;;;;;;;;;;;;;;21.79;62.64;101699.03;5008137;28;2879;-70
2022/10/29 11:03:10;;;;;;;;;;;;;;;21.81;62.72;101684.75;5026697;28;1613;-70
2022/10/29 11:05:38;;;;;;;;;;;;;;;21.81;62.71;101679.72;5008505;28;2808;-69
2022/10/29 11:08:21;;;;;;;;;;;;;;;21.82;62.69;101681.19;5010373;28;2733;-69
2022/10/29 11:10:52;;;;;;;;;;;;;;;21.82;62.94;101677.56;5009602;28;2829;-70
2022/10/29 11:13:22;;;;;;;;;;;;;;;21.83;62.76;101676.16;5019729;28;2896;-69
2022/10/29 11:15:53;;;;;;;;;;;;;;;21.82;62.88;101668.91;5013244;28;2943;-70
2022/10/29 11:18:36;;;;;;;;;;;;;;;21.84;62.71;101654.63;5026734;28;1688;-70
2022/10/29 11:21:22;;;;;;;;;;;;;;;21.87;62.58;101661.97;5011236;28;2004;-69
2022/10/29 11:23:58;;;;;;;;;;;;;;;21.86;62.84;101651.84;5010394;28;2817;-70
2022/10/29 11:26:27;;;;;;;;;;;;;;;21.87;62.53;101654.06;5011182;28;2875;-70
2022/10/29 11:29:05;;;;;;;;;;;;;;;21.87;62.83;101636.03;5010069;28;2717;-70
2022/10/29 11:31:51;;;;;;;;;;;;;;;21.84;63.06;101629.41;5017339;28;1814;-70
2022/10/29 11:34:20;;;;;;;;;;;;;;;21.88;63.07;101643.31;5011243;28;2820;-70
2022/10/29 11:36:51;;;;;;;;;;;;;;;21.89;63.17;101634.00;5032255;28;1667;-69
2022/10/29 11:39:29;;;;;;;;;;;;;;;21.89;62.85;101639.03;5015317;28;1608;-70
2022/10/29 11:41:58;;;;;;;;;;;;;;;21.87;63.05;101636.03;5013911;28;2773;-69
2022/10/29 11:44:25;;;;;;;;;;;;;;;21.88;63.20;101637.53;5014458;28;2907;-69
2022/10/29 11:47:08;;;;;;;;;;;;;;;21.88;62.88;101631.78;5015697;28;2906;-71
2022/10/29 11:49:52;;;;;;;;;;;;;;;21.91;62.85;101622.56;5013793;28;2879;-71
2022/10/29 11:52:30;;;;;;;;;;;;;;;21.91;62.99;101624.72;5031056;28;1783;-70
2022/10/29 11:55:00;;;;;;;;;;;;;;;21.91;63.20;101627.59;5013830;28;2736;-69
2022/10/29 11:57:36;;;;;;;;;;;;;;;21.93;63.18;101627.69;5014814;28;1962;-70
2022/10/29 12:00:18;;;;;;;;;;;;;;;21.94;62.96;101623.41;5017513;28;1668;-70
2022/10/29 12:02:48;;;;;;;;;;;;;;;21.90;63.11;101623.22;5028643;28;2888;-70
2022/10/29 12:05:23;;;;;;;;;;;;;;;21.91;62.96;101613.19;5024033;28;2874;-70
2022/10/29 12:07:55;;;;;;;;;;;;;;;21.92;63.05;101608.88;5014973;28;1569;-71
2022/10/29 12:10:27;;;;;;;;;;;;;;;21.90;63.33;101603.78;5013918;28;1560;-71
2022/10/29 12:13:13;;;;;;;;;;;;;;;21.92;63.25;101603.13;5016053;28;2969;-71
2022/10/29 12:15:41;;;;;;;;;;;;;;;21.94;63.17;101604.00;5012478;28;1661;-70
2022/10/29 12:18:20;;;;;;;;;;;;;;;21.95;63.24;101604.75;5015515;28;1593;-69
2022/10/29 12:20:49;;;;;;;;;;;;;;;21.96;63.24;101603.34;5020070;28;2891;-70
2022/10/29 12:23:35;;;;;;;;;;;;;;;21.93;63.22;101596.72;5011903;28;2822;-70
2022/10/29 12:26:10;;;;;;;;;;;;;;;21.95;63.71;101596.84;5010782;28;2984;-69
2022/10/29 12:28:47;;;;;;;;;;;;;;;21.95;63.44;101599.72;5023451;28;1580;-70
2022/10/29 12:31:31;;;;;;;;;;;;;;;21.98;63.63;101600.56;5023057;28;1761;-70
2022/10/29 12:34:00;;;;;;;;;;;;;;;22.01;63.24;101599.25;5014704;28;2900;-70
2022/10/29 12:36:37;;;;;;;;;;;;;;;22.00;63.27;101603.56;5016685;28;1720;-70
2022/10/29 12:39:04;;;;;;;;;;;;;;;22.02;63.47;101589.25;5019852;28;1557;-69
2022/10/29 12:41:32;;;;;;;;;;;;;;;22.03;63.34;101584.22;5020021;28;1938;-70
2022/10/29 12:44:02;;;;;;;;;;;;;;;22.04;63.13;101580.69;5017939;28;2848;-69
2022/10/29 12:46:42;;;;;;;;;;;;;;;22.07;62.96;101573.63;5015564;28;1838;-70
2022/10/29 12:49:08;;;;;;;;;;;;;;;22.08;62.87;101578.03;5031495;28;2875;-72
2022/10/29 12:51:35;;;;;;;;;;;;;;;22.07;63.05;101564.97;5011098;28;2690;-69
2022/10/29 12:54:15;;;;;;;;;;;;;;;22.05;63.39;101552.59;5012547;28;1604;-70
2022/10/29 12:56:41;;;;;;;;;;;;;;;22.08;63.22;101562.84;5012286;28;3170;-70
2022/10/29 12:59:31;;;;;;;;;;;;;;;22.08;63.08;101557.06;5019522;28;1739;-70